sensor_id;sensor_type;location;lat;lon;timestamp;temperature;humidity
64620;DHT22;51029;51.058;13.826;2023-04-12T00:00:23;3.00;99.90
64620;DHT22;51029;51.058;13.826;2023-04-12T00:02:49;3.00;99.90
64620;DHT22;51029;51.058;13.826;2023-04-12T00:05:19;3.00;99.90
64620;DHT22;51029;51.058;13.826;2023-04-12T00:07:47;3.00;99.90
64620;DHT22;51029;51.058;13.826;2023-04-12T00:10:13;2.90;99.90
64620;DHT22;51029;51.058;13.826;2023-04-12T00:12:39;2.90;99.90
64620;DHT22;51029;51.058;13.826;2023-04-12T00:15:06;2.80;99.90
64620;DHT22;51029;51.058;13.826;2023-04-12T00:17:31;2.80;99.90
64620;DHT22;51029;51.058;13.826;2023-04-12T00:19:57;2.80;99.90
64620;DHT22;51029;51.058;13.826;2023-04-12T00:22:24;2.80;99.90
64620;DHT22;51029;51.058;13.826;2023-04-12T00:24:50;2.70;99.90
64620;DHT22;51029;51.058;13.826;2023-04-12T00:27:16;2.70;99.90
64620;DHT22;51029;51.058;13.826;2023-04-12T00:29:41;2.70;99.90
64620;DHT22;51029;51.058;13.826;2023-04-12T00:32:07;2.70;99.90
64620;DHT22;51029;51.058;13.826;2023-04-12T00:34:32;2.70;99.90
64620;DHT22;51029;51.058;13.826;2023-04-12T00:36:59;2.70;99.90
64620;DHT22;51029;51.058;13.826;2023-04-12T00:39:25;2.70;99.90
64620;DHT22;51029;51.058;13.826;2023-04-12T00:41:50;2.60;99.90
64620;DHT22;51029;51.058;13.826;2023-04-12T00:44:16;2.60;99.90
64620;DHT22;51029;51.058;13.826;2023-04-12T00:46:43;2.60;99.90
64620;DHT22;51029;51.058;13.826;2023-04-12T00:49:09;2.60;99.90
64620;DHT22;51029;51.058;13.826;2023-04-12T00:51:36;2.60;99.90
64620;DHT22;51029;51.058;13.826;2023-04-12T00:54:02;2.50;99.90
64620;DHT22;51029;51.058;13.826;2023-04-12T00:56:28;2.40;99.90
64620;DHT22;51029;51.058;13.826;2023-04-12T00:58:55;2.50;99.90
64620;DHT22;51029;51.058;13.826;2023-04-12T01:01:21;2.50;99.90
64620;DHT22;51029;51.058;13.826;2023-04-12T01:03:51;2.40;99.90
64620;DHT22;51029;51.058;13.826;2023-04-12T01:11:34;2.30;99.90
64620;DHT22;51029;51.058;13.826;2023-04-12T01:14:08;2.30;99.90
64620;DHT22;51029;51.058;13.826;2023-04-12T01:16:49;2.30;99.90
64620;DHT22;51029;51.058;13.826;2023-04-12T01:19:28;2.30;99.90
64620;DHT22;51029;51.058;13.826;2023-04-12T01:28:02;2.30;99.90
64620;DHT22;51029;51.058;13.826;2023-04-12T01:30:28;2.20;99.90
64620;DHT22;51029;51.058;13.826;2023-04-12T01:32:56;2.10;99.90
64620;DHT22;51029;51.058;13.826;2023-04-12T01:35:28;2.10;99.90
64620;DHT22;51029;51.058;13.826;2023-04-12T01:37:55;2.10;99.90
64620;DHT22;51029;51.058;13.826;2023-04-12T01:40:22;2.10;99.90
64620;DHT22;51029;51.058;13.826;2023-04-12T01:42:47;2.10;99.90
64620;DHT22;51029;51.058;13.826;2023-04-12T01:45:13;2.10;99.90
64620;DHT22;51029;51.058;13.826;2023-04-12T01:47:38;2.10;99.90
64620;DHT22;51029;51.058;13.826;2023-04-12T01:52:47;2.10;99.90
64620;DHT22;51029;51.058;13.826;2023-04-12T01:55:14;2.00;99.90
64620;DHT22;51029;51.058;13.826;2023-04-12T01:57:42;2.00;99.90
64620;DHT22;51029;51.058;13.826;2023-04-12T02:00:10;1.90;99.90
64620;DHT22;51029;51.058;13.826;2023-04-12T02:02:36;1.90;99.90
64620;DHT22;51029;51.058;13.826;2023-04-12T02:05:05;1.90;99.90
64620;DHT22;51029;51.058;13.826;2023-04-12T02:07:30;1.90;99.90
64620;DHT22;51029;51.058;13.826;2023-04-12T02:09:56;1.90;99.90
64620;DHT22;51029;51.058;13.826;2023-04-12T02:12:22;1.90;99.90
64620;DHT22;51029;51.058;13.826;2023-04-12T02:14:47;1.90;99.90
64620;DHT22;51029;51.058;13.826;2023-04-12T02:17:16;1.90;99.90
64620;DHT22;51029;51.058;13.826;2023-04-12T02:19:42;1.90;99.90
64620;DHT22;51029;51.058;13.826;2023-04-12T02:22:07;1.90;99.90
64620;DHT22;51029;51.058;13.826;2023-04-12T02:24:33;1.90;99.90
64620;DHT22;51029;51.058;13.826;2023-04-12T02:26:58;1.90;99.90
64620;DHT22;51029;51.058;13.826;2023-04-12T02:29:25;1.80;99.90
64620;DHT22;51029;51.058;13.826;2023-04-12T02:31:51;1.80;99.90
64620;DHT22;51029;51.058;13.826;2023-04-12T02:34:17;1.80;99.90
64620;DHT22;51029;51.058;13.826;2023-04-12T02:36:52;1.80;99.90
64620;DHT22;51029;51.058;13.826;2023-04-12T02:39:17;1.70;99.90
64620;DHT22;51029;51.058;13.826;2023-04-12T02:41:43;1.70;99.90
64620;DHT22;51029;51.058;13.826;2023-04-12T02:44:10;1.70;99.90
64620;DHT22;51029;51.058;13.826;2023-04-12T02:46:35;1.60;99.90
64620;DHT22;51029;51.058;13.826;2023-04-12T02:49:01;1.60;99.90
64620;DHT22;51029;51.058;13.826;2023-04-12T02:51:26;1.50;99.90
64620;DHT22;51029;51.058;13.826;2023-04-12T02:53:52;1.30;99.90
64620;DHT22;51029;51.058;13.826;2023-04-12T02:56:18;1.20;99.90
64620;DHT22;51029;51.058;13.826;2023-04-12T02:58:46;1.20;99.90
64620;DHT22;51029;51.058;13.826;2023-04-12T03:01:11;1.20;99.90
64620;DHT22;51029;51.058;13.826;2023-04-12T03:03:37;1.30;99.90
64620;DHT22;51029;51.058;13.826;2023-04-12T03:06:03;1.30;99.90
64620;DHT22;51029;51.058;13.826;2023-04-12T03:08:29;1.30;99.90
64620;DHT22;51029;51.058;13.826;2023-04-12T03:10:55;1.30;99.90
64620;DHT22;51029;51.058;13.826;2023-04-12T03:13:21;1.20;99.90
64620;DHT22;51029;51.058;13.826;2023-04-12T03:15:46;1.20;99.90
64620;DHT22;51029;51.058;13.826;2023-04-12T03:18:14;1.20;99.90
64620;DHT22;51029;51.058;13.826;2023-04-12T03:20:40;1.10;99.90
64620;DHT22;51029;51.058;13.826;2023-04-12T03:23:08;1.00;99.90
64620;DHT22;51029;51.058;13.826;2023-04-12T03:25:34;1.00;99.90
64620;DHT22;51029;51.058;13.826;2023-04-12T03:28:01;0.90;99.90
64620;DHT22;51029;51.058;13.826;2023-04-12T03:30:27;0.90;99.90
64620;DHT22;51029;51.058;13.826;2023-04-12T03:32:52;1.00;99.90
64620;DHT22;51029;51.058;13.826;2023-04-12T03:35:18;1.00;99.90
64620;DHT22;51029;51.058;13.826;2023-04-12T03:37:43;1.00;99.90
64620;DHT22;51029;51.058;13.826;2023-04-12T03:40:09;1.00;99.90
64620;DHT22;51029;51.058;13.826;2023-04-12T03:42:35;1.00;99.90
64620;DHT22;51029;51.058;13.826;2023-04-12T03:45:01;1.00;99.90
64620;DHT22;51029;51.058;13.826;2023-04-12T03:47:26;0.90;99.90
64620;DHT22;51029;51.058;13.826;2023-04-12T03:49:55;0.90;99.90
64620;DHT22;51029;51.058;13.826;2023-04-12T03:52:21;0.90;99.90
64620;DHT22;51029;51.058;13.826;2023-04-12T03:54:46;0.90;99.90
64620;DHT22;51029;51.058;13.826;2023-04-12T03:57:12;1.00;99.90
64620;DHT22;51029;51.058;13.826;2023-04-12T03:59:38;1.00;99.90
64620;DHT22;51029;51.058;13.826;2023-04-12T04:02:03;0.90;99.90
64620;DHT22;51029;51.058;13.826;2023-04-12T04:04:29;1.00;99.90
64620;DHT22;51029;51.058;13.826;2023-04-12T04:06:55;1.10;99.90
64620;DHT22;51029;51.058;13.826;2023-04-12T04:09:20;1.10;99.90
64620;DHT22;51029;51.058;13.826;2023-04-12T04:11:46;1.20;99.90
64620;DHT22;51029;51.058;13.826;2023-04-12T04:14:12;1.20;99.90
64620;DHT22;51029;51.058;13.826;2023-04-12T04:16:38;1.20;99.90
64620;DHT22;51029;51.058;13.826;2023-04-12T04:19:03;1.20;99.90
64620;DHT22;51029;51.058;13.826;2023-04-12T04:21:29;1.20;99.90
64620;DHT22;51029;51.058;13.826;2023-04-12T04:23:58;1.20;99.90
64620;DHT22;51029;51.058;13.826;2023-04-12T04:26:25;1.20;99.90
64620;DHT22;51029;51.058;13.826;2023-04-12T04:28:56;1.30;99.90
64620;DHT22;51029;51.058;13.826;2023-04-12T04:31:26;1.20;99.90
64620;DHT22;51029;51.058;13.826;2023-04-12T04:33:52;1.20;99.90
64620;DHT22;51029;51.058;13.826;2023-04-12T04:36:18;1.10;99.90
64620;DHT22;51029;51.058;13.826;2023-04-12T04:38:43;1.10;99.90
64620;DHT22;51029;51.058;13.826;2023-04-12T04:41:10;1.20;99.90
64620;DHT22;51029;51.058;13.826;2023-04-12T04:43:36;1.20;99.90
64620;DHT22;51029;51.058;13.826;2023-04-12T04:46:05;1.30;99.90
64620;DHT22;51029;51.058;13.826;2023-04-12T04:48:30;1.30;99.90
64620;DHT22;51029;51.058;13.826;2023-04-12T04:50:56;1.40;99.90
64620;DHT22;51029;51.058;13.826;2023-04-12T04:53:22;1.40;99.90
64620;DHT22;51029;51.058;13.826;2023-04-12T04:55:47;1.40;99.90
64620;DHT22;51029;51.058;13.826;2023-04-12T04:58:14;1.50;99.90
64620;DHT22;51029;51.058;13.826;2023-04-12T05:00:40;1.40;99.90
64620;DHT22;51029;51.058;13.826;2023-04-12T05:03:09;1.30;99.90
64620;DHT22;51029;51.058;13.826;2023-04-12T05:05:34;1.40;99.90
64620;DHT22;51029;51.058;13.826;2023-04-12T05:08:00;1.50;99.90
64620;DHT22;51029;51.058;13.826;2023-04-12T05:10:26;1.60;99.90
64620;DHT22;51029;51.058;13.826;2023-04-12T05:12:51;1.60;99.90
64620;DHT22;51029;51.058;13.826;2023-04-12T05:15:17;1.70;99.90
64620;DHT22;51029;51.058;13.826;2023-04-12T05:17:43;1.70;99.90
64620;DHT22;51029;51.058;13.826;2023-04-12T05:20:09;1.80;99.90
64620;DHT22;51029;51.058;13.826;2023-04-12T05:22:37;1.80;99.90
64620;DHT22;51029;51.058;13.826;2023-04-12T05:25:03;1.80;99.90
64620;DHT22;51029;51.058;13.826;2023-04-12T05:27:29;1.90;99.90
64620;DHT22;51029;51.058;13.826;2023-04-12T05:29:58;1.90;99.90
64620;DHT22;51029;51.058;13.826;2023-04-12T05:32:25;2.00;99.90
64620;DHT22;51029;51.058;13.826;2023-04-12T05:34:50;2.10;99.90
64620;DHT22;51029;51.058;13.826;2023-04-12T05:37:16;2.30;99.90
64620;DHT22;51029;51.058;13.826;2023-04-12T05:39:42;2.40;99.90
64620;DHT22;51029;51.058;13.826;2023-04-12T05:42:08;2.50;99.90
64620;DHT22;51029;51.058;13.826;2023-04-12T05:44:34;2.60;99.90
64620;DHT22;51029;51.058;13.826;2023-04-12T05:47:01;2.70;99.90
64620;DHT22;51029;51.058;13.826;2023-04-12T05:49:30;2.80;99.90
64620;DHT22;51029;51.058;13.826;2023-04-12T05:51:57;3.00;99.90
64620;DHT22;51029;51.058;13.826;2023-04-12T05:54:22;3.10;99.90
64620;DHT22;51029;51.058;13.826;2023-04-12T05:56:50;3.20;99.90
64620;DHT22;51029;51.058;13.826;2023-04-12T05:59:16;3.20;99.90
64620;DHT22;51029;51.058;13.826;2023-04-12T06:01:43;3.30;99.90
64620;DHT22;51029;51.058;13.826;2023-04-12T06:04:09;3.40;99.90
64620;DHT22;51029;51.058;13.826;2023-04-12T06:06:35;3.60;99.90
64620;DHT22;51029;51.058;13.826;2023-04-12T06:09:00;3.70;99.90
64620;DHT22;51029;51.058;13.826;2023-04-12T06:11:27;3.80;99.90
64620;DHT22;51029;51.058;13.826;2023-04-12T06:13:52;4.00;99.90
64620;DHT22;51029;51.058;13.826;2023-04-12T06:16:18;4.30;99.90
64620;DHT22;51029;51.058;13.826;2023-04-12T06:18:43;4.30;99.90
64620;DHT22;51029;51.058;13.826;2023-04-12T06:21:09;4.40;99.90
64620;DHT22;51029;51.058;13.826;2023-04-12T06:23:34;4.50;99.90
64620;DHT22;51029;51.058;13.826;2023-04-12T06:26:01;4.60;99.90
64620;DHT22;51029;51.058;13.826;2023-04-12T06:28:26;4.90;99.90
64620;DHT22;51029;51.058;13.826;2023-04-12T06:30:52;5.00;99.90
64620;DHT22;51029;51.058;13.826;2023-04-12T06:33:18;5.10;99.90
64620;DHT22;51029;51.058;13.826;2023-04-12T06:35:46;5.20;99.90
64620;DHT22;51029;51.058;13.826;2023-04-12T06:38:12;5.30;99.90
64620;DHT22;51029;51.058;13.826;2023-04-12T06:40:38;5.50;99.90
64620;DHT22;51029;51.058;13.826;2023-04-12T06:43:03;5.70;99.90
64620;DHT22;51029;51.058;13.826;2023-04-12T06:45:29;5.80;99.90
64620;DHT22;51029;51.058;13.826;2023-04-12T06:47:54;6.00;99.90
64620;DHT22;51029;51.058;13.826;2023-04-12T06:50:21;6.20;99.90
64620;DHT22;51029;51.058;13.826;2023-04-12T06:52:47;6.40;99.90
64620;DHT22;51029;51.058;13.826;2023-04-12T06:55:16;6.60;99.90
64620;DHT22;51029;51.058;13.826;2023-04-12T06:57:42;6.90;99.90
64620;DHT22;51029;51.058;13.826;2023-04-12T07:02:44;7.80;99.90
64620;DHT22;51029;51.058;13.826;2023-04-12T07:05:09;8.20;99.90
64620;DHT22;51029;51.058;13.826;2023-04-12T07:07:35;8.60;99.90
64620;DHT22;51029;51.058;13.826;2023-04-12T07:10:00;8.80;99.90
64620;DHT22;51029;51.058;13.826;2023-04-12T07:12:28;9.10;99.90
64620;DHT22;51029;51.058;13.826;2023-04-12T07:14:54;9.40;99.90
64620;DHT22;51029;51.058;13.826;2023-04-12T07:17:19;9.70;99.90
64620;DHT22;51029;51.058;13.826;2023-04-12T07:19:45;9.80;99.90
64620;DHT22;51029;51.058;13.826;2023-04-12T07:22:12;10.10;99.90
64620;DHT22;51029;51.058;13.826;2023-04-12T07:24:37;10.30;99.90
64620;DHT22;51029;51.058;13.826;2023-04-12T07:27:03;10.40;99.90
64620;DHT22;51029;51.058;13.826;2023-04-12T07:29:28;10.40;99.90
64620;DHT22;51029;51.058;13.826;2023-04-12T07:31:54;10.60;99.90
64620;DHT22;51029;51.058;13.826;2023-04-12T07:34:19;10.70;99.90
64620;DHT22;51029;51.058;13.826;2023-04-12T07:36:45;10.70;99.90
64620;DHT22;51029;51.058;13.826;2023-04-12T07:39:10;11.00;99.90
64620;DHT22;51029;51.058;13.826;2023-04-12T07:41:37;11.10;99.90
64620;DHT22;51029;51.058;13.826;2023-04-12T07:44:03;11.20;99.90
64620;DHT22;51029;51.058;13.826;2023-04-12T07:46:29;11.10;99.90
64620;DHT22;51029;51.058;13.826;2023-04-12T07:48:55;11.10;99.90
64620;DHT22;51029;51.058;13.826;2023-04-12T07:51:20;11.20;99.90
64620;DHT22;51029;51.058;13.826;2023-04-12T07:53:46;11.30;99.90
64620;DHT22;51029;51.058;13.826;2023-04-12T07:56:13;11.40;99.90
64620;DHT22;51029;51.058;13.826;2023-04-12T07:58:38;11.40;99.90
64620;DHT22;51029;51.058;13.826;2023-04-12T08:01:04;11.40;99.90
64620;DHT22;51029;51.058;13.826;2023-04-12T08:03:30;11.60;99.90
64620;DHT22;51029;51.058;13.826;2023-04-12T08:05:55;11.70;99.90
64620;DHT22;51029;51.058;13.826;2023-04-12T08:08:21;11.80;99.90
64620;DHT22;51029;51.058;13.826;2023-04-12T08:10:47;11.80;99.90
64620;DHT22;51029;51.058;13.826;2023-04-12T08:13:13;11.70;99.90
64620;DHT22;51029;51.058;13.826;2023-04-12T08:15:39;11.90;99.90
64620;DHT22;51029;51.058;13.826;2023-04-12T08:18:04;12.20;99.90
64620;DHT22;51029;51.058;13.826;2023-04-12T08:20:30;12.40;99.90
64620;DHT22;51029;51.058;13.826;2023-04-12T08:22:56;12.70;99.90
64620;DHT22;51029;51.058;13.826;2023-04-12T08:25:22;12.70;99.90
64620;DHT22;51029;51.058;13.826;2023-04-12T08:27:49;12.90;99.90
64620;DHT22;51029;51.058;13.826;2023-04-12T08:30:15;12.90;99.50
64620;DHT22;51029;51.058;13.826;2023-04-12T08:32:41;13.00;99.90
64620;DHT22;51029;51.058;13.826;2023-04-12T08:35:08;13.00;99.90
64620;DHT22;51029;51.058;13.826;2023-04-12T08:37:34;12.80;98.70
64620;DHT22;51029;51.058;13.826;2023-04-12T08:40:05;13.00;98.80
64620;DHT22;51029;51.058;13.826;2023-04-12T08:42:33;13.00;98.80
64620;DHT22;51029;51.058;13.826;2023-04-12T08:45:04;13.20;98.80
64620;DHT22;51029;51.058;13.826;2023-04-12T08:47:32;13.50;98.30
64620;DHT22;51029;51.058;13.826;2023-04-12T08:49:59;13.80;96.50
64620;DHT22;51029;51.058;13.826;2023-04-12T08:52:25;14.00;94.80
64620;DHT22;51029;51.058;13.826;2023-04-12T08:54:51;14.20;94.10
64620;DHT22;51029;51.058;13.826;2023-04-12T08:57:17;14.50;96.90
64620;DHT22;51029;51.058;13.826;2023-04-12T08:59:44;14.50;93.50
64620;DHT22;51029;51.058;13.826;2023-04-12T09:02:13;14.20;91.00
64620;DHT22;51029;51.058;13.826;2023-04-12T09:04:51;14.50;91.90
64620;DHT22;51029;51.058;13.826;2023-04-12T09:07:18;14.90;94.00
64620;DHT22;51029;51.058;13.826;2023-04-12T09:09:45;15.30;91.40
64620;DHT22;51029;51.058;13.826;2023-04-12T09:12:12;15.60;92.00
64620;DHT22;51029;51.058;13.826;2023-04-12T09:14:39;15.80;88.10
64620;DHT22;51029;51.058;13.826;2023-04-12T09:17:24;15.50;86.70
64620;DHT22;51029;51.058;13.826;2023-04-12T09:19:50;15.50;86.50
64620;DHT22;51029;51.058;13.826;2023-04-12T09:22:15;16.00;85.90
64620;DHT22;51029;51.058;13.826;2023-04-12T09:24:49;16.30;81.90
64620;DHT22;51029;51.058;13.826;2023-04-12T09:27:18;17.20;80.80
64620;DHT22;51029;51.058;13.826;2023-04-12T09:29:47;17.90;74.80
64620;DHT22;51029;51.058;13.826;2023-04-12T09:32:24;18.60;73.40
64620;DHT22;51029;51.058;13.826;2023-04-12T09:34:57;18.70;70.40
64620;DHT22;51029;51.058;13.826;2023-04-12T09:37:23;18.30;67.20
64620;DHT22;51029;51.058;13.826;2023-04-12T09:40:03;19.00;66.60
64620;DHT22;51029;51.058;13.826;2023-04-12T09:45:47;20.20;58.20
64620;DHT22;51029;51.058;13.826;2023-04-12T09:48:19;19.90;56.50
64620;DHT22;51029;51.058;13.826;2023-04-12T09:50:45;19.40;56.00
64620;DHT22;51029;51.058;13.826;2023-04-12T09:53:17;20.50;57.90
64620;DHT22;51029;51.058;13.826;2023-04-12T09:55:43;21.00;54.00
64620;DHT22;51029;51.058;13.826;2023-04-12T09:58:10;20.80;51.30
64620;DHT22;51029;51.058;13.826;2023-04-12T10:02:16;22.20;49.80
64620;DHT22;51029;51.058;13.826;2023-04-12T10:04:43;22.60;49.30
64620;DHT22;51029;51.058;13.826;2023-04-12T10:07:09;23.50;45.20
64620;DHT22;51029;51.058;13.826;2023-04-12T10:09:38;25.00;45.80
64620;DHT22;51029;51.058;13.826;2023-04-12T10:12:04;25.10;43.40
64620;DHT22;51029;51.058;13.826;2023-04-12T10:14:30;25.10;39.90
64620;DHT22;51029;51.058;13.826;2023-04-12T10:16:58;25.50;39.00
64620;DHT22;51029;51.058;13.826;2023-04-12T10:19:31;24.50;39.30
64620;DHT22;51029;51.058;13.826;2023-04-12T10:21:58;24.70;38.90
64620;DHT22;51029;51.058;13.826;2023-04-12T10:24:26;25.40;39.40
64620;DHT22;51029;51.058;13.826;2023-04-12T10:26:53;26.10;38.70
64620;DHT22;51029;51.058;13.826;2023-04-12T10:32:16;25.20;37.90
64620;DHT22;51029;51.058;13.826;2023-04-12T10:34:41;25.80;36.80
64620;DHT22;51029;51.058;13.826;2023-04-12T10:37:07;27.10;38.50
64620;DHT22;51029;51.058;13.826;2023-04-12T10:39:42;27.80;36.00
64620;DHT22;51029;51.058;13.826;2023-04-12T10:44:50;29.30;33.40
64620;DHT22;51029;51.058;13.826;2023-04-12T10:50:32;28.90;32.80
64620;DHT22;51029;51.058;13.826;2023-04-12T10:55:41;28.90;31.10
64620;DHT22;51029;51.058;13.826;2023-04-12T10:58:07;30.50;30.90
64620;DHT22;51029;51.058;13.826;2023-04-12T11:03:21;32.20;29.40
64620;DHT22;51029;51.058;13.826;2023-04-12T11:06:03;33.20;27.70
64620;DHT22;51029;51.058;13.826;2023-04-12T11:08:30;32.80;27.00
64620;DHT22;51029;51.058;13.826;2023-04-12T11:11:03;33.80;27.80
64620;DHT22;51029;51.058;13.826;2023-04-12T11:13:34;35.30;26.90
64620;DHT22;51029;51.058;13.826;2023-04-12T11:16:04;34.90;26.00
64620;DHT22;51029;51.058;13.826;2023-04-12T11:18:32;35.20;26.30
64620;DHT22;51029;51.058;13.826;2023-04-12T11:20:59;36.00;25.10
64620;DHT22;51029;51.058;13.826;2023-04-12T11:23:24;36.50;25.20
64620;DHT22;51029;51.058;13.826;2023-04-12T11:25:51;37.10;23.40
64620;DHT22;51029;51.058;13.826;2023-04-12T11:28:20;35.20;24.00
64620;DHT22;51029;51.058;13.826;2023-04-12T11:30:48;35.90;23.70
64620;DHT22;51029;51.058;13.826;2023-04-12T11:33:34;35.00;24.20
64620;DHT22;51029;51.058;13.826;2023-04-12T11:36:03;34.90;23.40
64620;DHT22;51029;51.058;13.826;2023-04-12T11:38:30;37.00;23.80
64620;DHT22;51029;51.058;13.826;2023-04-12T11:40:55;37.90;23.10
64620;DHT22;51029;51.058;13.826;2023-04-12T11:43:21;36.80;22.60
64620;DHT22;51029;51.058;13.826;2023-04-12T11:45:47;35.90;23.20
64620;DHT22;51029;51.058;13.826;2023-04-12T11:48:12;35.10;24.00
64620;DHT22;51029;51.058;13.826;2023-04-12T11:50:38;37.40;22.50
64620;DHT22;51029;51.058;13.826;2023-04-12T11:53:14;37.00;21.90
64620;DHT22;51029;51.058;13.826;2023-04-12T11:55:47;37.60;23.30
64620;DHT22;51029;51.058;13.826;2023-04-12T11:58:12;38.80;22.20
64620;DHT22;51029;51.058;13.826;2023-04-12T12:00:40;35.70;21.80
64620;DHT22;51029;51.058;13.826;2023-04-12T12:03:06;31.80;24.00
64620;DHT22;51029;51.058;13.826;2023-04-12T12:05:31;33.10;24.60
64620;DHT22;51029;51.058;13.826;2023-04-12T12:08:01;34.00;24.30
64620;DHT22;51029;51.058;13.826;2023-04-12T12:10:30;32.20;24.50
64620;DHT22;51029;51.058;13.826;2023-04-12T12:12:59;32.30;26.00
64620;DHT22;51029;51.058;13.826;2023-04-12T12:15:29;32.40;25.40
64620;DHT22;51029;51.058;13.826;2023-04-12T12:17:55;29.50;26.00
64620;DHT22;51029;51.058;13.826;2023-04-12T12:20:20;29.30;27.20
64620;DHT22;51029;51.058;13.826;2023-04-12T12:22:46;29.00;27.00
64620;DHT22;51029;51.058;13.826;2023-04-12T12:25:13;28.70;27.30
64620;DHT22;51029;51.058;13.826;2023-04-12T12:27:39;27.80;28.30
64620;DHT22;51029;51.058;13.826;2023-04-12T12:30:08;29.20;27.90
64620;DHT22;51029;51.058;13.826;2023-04-12T12:32:35;29.40;26.70
64620;DHT22;51029;51.058;13.826;2023-04-12T12:35:06;28.10;27.30
64620;DHT22;51029;51.058;13.826;2023-04-12T12:37:32;27.80;28.30
64620;DHT22;51029;51.058;13.826;2023-04-12T12:42:48;32.70;24.80
64620;DHT22;51029;51.058;13.826;2023-04-12T12:45:15;34.30;23.30
64620;DHT22;51029;51.058;13.826;2023-04-12T12:50:24;37.10;23.00
64620;DHT22;51029;51.058;13.826;2023-04-12T12:52:51;37.70;21.30
64620;DHT22;51029;51.058;13.826;2023-04-12T12:55:18;38.30;20.60
64620;DHT22;51029;51.058;13.826;2023-04-12T12:57:44;34.70;21.20
64620;DHT22;51029;51.058;13.826;2023-04-12T13:00:14;31.70;23.20
64620;DHT22;51029;51.058;13.826;2023-04-12T13:02:43;33.50;23.40
64620;DHT22;51029;51.058;13.826;2023-04-12T13:05:09;31.90;24.10
64620;DHT22;51029;51.058;13.826;2023-04-12T13:07:35;29.90;25.20
64620;DHT22;51029;51.058;13.826;2023-04-12T13:10:01;27.50;26.70
64620;DHT22;51029;51.058;13.826;2023-04-12T13:12:27;27.70;27.80
64620;DHT22;51029;51.058;13.826;2023-04-12T13:14:53;28.30;27.70
64620;DHT22;51029;51.058;13.826;2023-04-12T13:17:19;28.00;26.40
64620;DHT22;51029;51.058;13.826;2023-04-12T13:19:45;27.10;28.00
64620;DHT22;51029;51.058;13.826;2023-04-12T13:22:12;27.20;27.90
64620;DHT22;51029;51.058;13.826;2023-04-12T13:24:38;26.30;28.60
64620;DHT22;51029;51.058;13.826;2023-04-12T13:27:03;25.80;29.60
64620;DHT22;51029;51.058;13.826;2023-04-12T13:29:29;26.20;29.70
64620;DHT22;51029;51.058;13.826;2023-04-12T13:31:55;25.10;29.90
64620;DHT22;51029;51.058;13.826;2023-04-12T13:34:21;24.90;30.90
64620;DHT22;51029;51.058;13.826;2023-04-12T13:36:47;24.50;31.10
64620;DHT22;51029;51.058;13.826;2023-04-12T13:39:13;23.70;31.80
64620;DHT22;51029;51.058;13.826;2023-04-12T13:41:38;22.30;34.10
64620;DHT22;51029;51.058;13.826;2023-04-12T13:44:04;22.20;34.90
64620;DHT22;51029;51.058;13.826;2023-04-12T13:46:30;22.50;35.40
64620;DHT22;51029;51.058;13.826;2023-04-12T13:48:56;22.30;34.00
64620;DHT22;51029;51.058;13.826;2023-04-12T13:51:21;21.90;35.10
64620;DHT22;51029;51.058;13.826;2023-04-12T13:53:47;20.60;36.90
64620;DHT22;51029;51.058;13.826;2023-04-12T13:56:12;19.60;38.00
64620;DHT22;51029;51.058;13.826;2023-04-12T13:58:40;19.30;39.80
64620;DHT22;51029;51.058;13.826;2023-04-12T14:01:06;19.10;40.40
64620;DHT22;51029;51.058;13.826;2023-04-12T14:03:32;19.30;40.00
64620;DHT22;51029;51.058;13.826;2023-04-12T14:05:58;19.00;40.20
64620;DHT22;51029;51.058;13.826;2023-04-12T14:08:25;18.80;41.10
64620;DHT22;51029;51.058;13.826;2023-04-12T14:10:52;18.70;41.90
64620;DHT22;51029;51.058;13.826;2023-04-12T14:13:20;18.80;42.60
64620;DHT22;51029;51.058;13.826;2023-04-12T14:15:46;19.10;42.40
64620;DHT22;51029;51.058;13.826;2023-04-12T14:18:11;18.90;41.40
64620;DHT22;51029;51.058;13.826;2023-04-12T14:20:37;18.90;41.50
64620;DHT22;51029;51.058;13.826;2023-04-12T14:23:02;19.00;42.10
64620;DHT22;51029;51.058;13.826;2023-04-12T14:25:29;18.90;41.80
64620;DHT22;51029;51.058;13.826;2023-04-12T14:27:54;18.10;42.10
64620;DHT22;51029;51.058;13.826;2023-04-12T14:30:20;17.60;43.10
64620;DHT22;51029;51.058;13.826;2023-04-12T14:32:45;17.50;45.50
64620;DHT22;51029;51.058;13.826;2023-04-12T14:35:11;17.30;46.20
64620;DHT22;51029;51.058;13.826;2023-04-12T14:37:37;17.20;48.10
64620;DHT22;51029;51.058;13.826;2023-04-12T14:40:03;17.00;48.60
64620;DHT22;51029;51.058;13.826;2023-04-12T14:42:31;16.90;49.60
64620;DHT22;51029;51.058;13.826;2023-04-12T14:44:56;17.00;53.20
64620;DHT22;51029;51.058;13.826;2023-04-12T14:47:22;16.80;54.70
64620;DHT22;51029;51.058;13.826;2023-04-12T14:49:47;16.70;57.40
64620;DHT22;51029;51.058;13.826;2023-04-12T14:52:13;16.70;62.00
64620;DHT22;51029;51.058;13.826;2023-04-12T14:54:39;16.50;58.70
64620;DHT22;51029;51.058;13.826;2023-04-12T14:57:04;15.90;99.90
64620;DHT22;51029;51.058;13.826;2023-04-12T14:59:30;15.90;91.50
64620;DHT22;51029;51.058;13.826;2023-04-12T15:01:56;15.80;90.90
64620;DHT22;51029;51.058;13.826;2023-04-12T15:04:23;15.50;92.00
64620;DHT22;51029;51.058;13.826;2023-04-12T15:06:49;15.30;93.50
64620;DHT22;51029;51.058;13.826;2023-04-12T15:09:15;15.10;94.40
64620;DHT22;51029;51.058;13.826;2023-04-12T15:11:42;14.90;95.90
64620;DHT22;51029;51.058;13.826;2023-04-12T15:14:10;14.70;99.90
64620;DHT22;51029;51.058;13.826;2023-04-12T15:16:43;14.30;99.90
64620;DHT22;51029;51.058;13.826;2023-04-12T15:19:10;14.40;99.90
64620;DHT22;51029;51.058;13.826;2023-04-12T15:21:36;14.40;99.90
64620;DHT22;51029;51.058;13.826;2023-04-12T15:24:02;14.40;99.90
64620;DHT22;51029;51.058;13.826;2023-04-12T15:26:27;14.50;99.90
64620;DHT22;51029;51.058;13.826;2023-04-12T15:28:53;14.60;99.90
64620;DHT22;51029;51.058;13.826;2023-04-12T15:31:18;14.60;99.90
64620;DHT22;51029;51.058;13.826;2023-04-12T15:33:44;14.50;99.90
64620;DHT22;51029;51.058;13.826;2023-04-12T15:36:11;14.40;99.90
64620;DHT22;51029;51.058;13.826;2023-04-12T15:38:41;14.20;99.90
64620;DHT22;51029;51.058;13.826;2023-04-12T15:41:07;14.00;99.90
64620;DHT22;51029;51.058;13.826;2023-04-12T15:43:33;14.00;99.90
64620;DHT22;51029;51.058;13.826;2023-04-12T15:45:58;14.00;99.90
64620;DHT22;51029;51.058;13.826;2023-04-12T15:48:25;13.90;99.90
64620;DHT22;51029;51.058;13.826;2023-04-12T15:50:54;13.90;99.90
64620;DHT22;51029;51.058;13.826;2023-04-12T15:53:24;13.80;99.90
64620;DHT22;51029;51.058;13.826;2023-04-12T15:55:50;13.90;99.90
64620;DHT22;51029;51.058;13.826;2023-04-12T15:58:23;13.90;99.90
64620;DHT22;51029;51.058;13.826;2023-04-12T16:00:49;14.00;99.90